Time;durP1;ratioP1;P1;durP2;ratioP2;P2;SDS_P1;SDS_P2;PMS_P1;PMS_P2;Temp;Humidity;BMP_temperature;BMP_pressure;BME280_temperature;BME280_humidity;BME280_pressure;Samples;Min_cycle;Max_cycle;Signal;HPM_P1;HPM_P2
2023/09/29 00:00:47;;;;;;;5.07;1.35;;;21.40;91.00;;;;;;5033414;28;20036;-82
2023/09/29 00:03:15;;;;;;;6.35;1.90;;;21.40;91.00;;;;;;5033141;28;20397;-82
2023/09/29 00:05:42;;;;;;;5.40;1.70;;;21.40;91.00;;;;;;5033601;28;20041;-82
2023/09/29 00:08:07;;;;;;;3.22;1.23;;;21.40;91.10;;;;;;5033057;28;20083;-83
2023/09/29 00:10:34;;;;;;;5.25;1.20;;;21.40;91.10;;;;;;5033662;28;20026;-83
2023/09/29 00:13:00;;;;;;;4.72;1.27;;;21.40;91.10;;;;;;5033392;28;20053;-84
2023/09/29 00:15:26;;;;;;;5.88;1.52;;;21.40;91.10;;;;;;5033632;28;20355;-82
2023/09/29 00:17:51;;;;;;;5.40;1.50;;;21.40;91.10;;;;;;5032911;28;20044;-83
2023/09/29 00:20:23;;;;;;;6.43;1.90;;;21.40;91.10;;;;;;5033484;28;20084;-83
2023/09/29 00:22:59;;;;;;;4.18;1.40;;;21.50;91.20;;;;;;5033720;28;20072;-83
2023/09/29 00:25:25;;;;;;;5.05;1.50;;;21.50;91.10;;;;;;5033952;28;20398;-83
2023/09/29 00:27:52;;;;;;;5.35;1.35;;;21.50;91.40;;;;;;5033299;28;20029;-82
2023/09/29 00:30:17;;;;;;;4.13;1.40;;;21.40;91.10;;;;;;5033338;28;20159;-81
2023/09/29 00:32:48;;;;;;;8.05;1.73;;;21.50;91.10;;;;;;5033937;28;20116;-81
2023/09/29 00:35:37;;;;;;;5.53;1.70;;;21.50;91.10;;;;;;5036710;28;20040;-82
2023/09/29 00:38:01;;;;;;;5.88;1.67;;;21.50;91.10;;;;;;5037469;28;20044;-84
2023/09/29 00:40:28;;;;;;;6.63;1.75;;;21.40;91.10;;;;;;5038155;28;20116;-83
2023/09/29 00:42:54;;;;;;;7.32;2.55;;;21.40;91.20;;;;;;5035549;28;20037;-84
2023/09/29 00:45:23;;;;;;;6.97;1.50;;;21.40;91.20;;;;;;5037096;28;20031;-83
2023/09/29 00:47:51;;;;;;;5.65;1.40;;;21.40;91.20;;;;;;5035934;28;20517;-82
2023/09/29 00:50:19;;;;;;;5.60;1.80;;;21.40;91.20;;;;;;5037274;28;20033;-82
2023/09/29 00:52:46;;;;;;;6.50;1.70;;;21.40;91.30;;;;;;5036832;28;20026;-84
2023/09/29 00:55:16;;;;;;;7.03;1.90;;;21.40;91.30;;;;;;5036906;28;20026;-83
2023/09/29 00:57:43;;;;;;;5.22;1.45;;;21.40;91.20;;;;;;5036587;28;20033;-84
2023/09/29 01:03:05;;;;;;;5.20;1.92;;;21.40;91.30;;;;;;5036848;28;20389;-84
2023/09/29 01:05:52;;;;;;;5.15;1.48;;;21.40;91.30;;;;;;5036827;28;20029;-84
2023/09/29 01:08:23;;;;;;;6.82;1.50;;;21.40;91.30;;;;;;5036670;28;20033;-83
2023/09/29 01:10:49;;;;;;;5.28;1.75;;;21.40;91.30;;;;;;5035366;28;20030;-83
2023/09/29 01:13:15;;;;;;;3.90;1.30;;;21.40;91.60;;;;;;5036668;28;20135;-82
2023/09/29 01:15:42;;;;;;;9.90;1.80;;;21.40;91.60;;;;;;5035420;28;20466;-83
2023/09/29 01:18:09;;;;;;;4.70;1.45;;;21.40;91.40;;;;;;5036438;28;20026;-82
2023/09/29 01:20:37;;;;;;;4.85;1.05;;;21.40;91.30;;;;;;5036250;28;20022;-82
2023/09/29 01:23:04;;;;;;;4.22;1.30;;;21.40;91.30;;;;;;5036388;28;20068;-82
2023/09/29 01:25:29;;;;;;;6.30;1.65;;;21.40;91.30;;;;;;5036341;28;20136;-82
2023/09/29 01:27:56;;;;;;;4.82;1.27;;;21.40;91.30;;;;;;5036099;28;20057;-82
2023/09/29 01:30:24;;;;;;;4.63;1.88;;;21.40;91.30;;;;;;5036321;28;20084;-82
2023/09/29 01:32:53;;;;;;;6.15;1.80;;;21.40;91.40;;;;;;5035714;28;20025;-82
2023/09/29 01:35:27;;;;;;;5.90;1.63;;;21.30;91.40;;;;;;5035946;28;20500;-81
2023/09/29 01:37:54;;;;;;;8.38;2.00;;;21.30;91.40;;;;;;5036178;28;20041;-81
2023/09/29 01:40:21;;;;;;;6.13;1.65;;;21.20;91.40;;;;;;5036187;28;20033;-82
2023/09/29 01:42:47;;;;;;;5.28;2.03;;;21.20;91.50;;;;;;5036000;28;20083;-83
2023/09/29 01:45:16;;;;;;;9.70;2.60;;;21.20;91.50;;;;;;5035804;28;20029;-82
2023/09/29 01:47:46;;;;;;;5.07;1.60;;;21.10;91.70;;;;;;5035019;28;20149;-81
2023/09/29 01:50:17;;;;;;;4.18;1.15;;;21.10;91.80;;;;;;5035984;28;20029;-82
2023/09/29 01:52:47;;;;;;;7.03;1.67;;;21.10;91.80;;;;;;5034814;28;20030;-82
2023/09/29 01:55:19;;;;;;;7.60;1.60;;;21.10;91.80;;;;;;5034724;28;20043;-81
2023/09/29 01:57:46;;;;;;;;;;;21.00;91.80;;;;;;5035901;28;20033;-82
2023/09/29 02:00:19;;;;;;;5.20;1.63;;;21.00;91.80;;;;;;5034605;28;20259;-81
2023/09/29 02:02:46;;;;;;;3.30;1.23;;;21.10;91.80;;;;;;5034228;28;20033;-82
2023/09/29 02:05:12;;;;;;;9.15;1.88;;;21.10;91.70;;;;;;5018126;28;20056;-81
2023/09/29 02:07:39;;;;;;;8.13;2.40;;;21.10;91.80;;;;;;5035135;28;20539;-81
2023/09/29 02:10:07;;;;;;;5.80;2.10;;;21.10;91.80;;;;;;5035642;28;20083;-81
2023/09/29 02:12:33;;;;;;;7.38;2.47;;;21.00;91.90;;;;;;5035431;28;20061;-81
2023/09/29 02:14:59;;;;;;;6.40;2.70;;;21.00;92.00;;;;;;5035226;28;20030;-81
2023/09/29 02:17:25;;;;;;;9.63;2.47;;;21.00;92.10;;;;;;5035287;28;20026;-82
2023/09/29 02:19:52;;;;;;;6.75;2.03;;;20.90;92.20;;;;;;5034929;28;20033;-81
2023/09/29 02:22:19;;;;;;;8.20;2.75;;;20.80;92.20;;;;;;5035378;28;20034;-82
2023/09/29 02:24:45;;;;;;;10.32;3.50;;;20.80;92.20;;;;;;5034895;28;20046;-83
2023/09/29 02:27:10;;;;;;;4.95;2.20;;;20.90;92.30;;;;;;5035313;28;20034;-83
2023/09/29 02:29:36;;;;;;;4.28;1.60;;;20.80;92.30;;;;;;5035172;28;20075;-84
2023/09/29 02:32:02;;;;;;;4.97;1.75;;;20.90;92.30;;;;;;5034926;28;20038;-83
2023/09/29 02:34:28;;;;;;;5.43;1.77;;;20.90;92.20;;;;;;5034771;28;20040;-84
2023/09/29 02:36:56;;;;;;;5.20;1.90;;;20.90;92.20;;;;;;5033599;28;20033;-83
2023/09/29 02:39:22;;;;;;;4.75;1.80;;;20.90;92.20;;;;;;5033725;28;20132;-82
2023/09/29 02:41:48;;;;;;;6.28;2.15;;;20.90;92.30;;;;;;5034912;28;20207;-82
2023/09/29 02:44:14;;;;;;;3.85;1.52;;;20.90;92.30;;;;;;5034588;28;20132;-82
2023/09/29 02:46:40;;;;;;;4.50;1.60;;;20.90;92.30;;;;;;5034838;28;20108;-83
2023/09/29 02:49:07;;;;;;;5.47;2.25;;;21.00;92.30;;;;;;5034302;28;20040;-82
2023/09/29 02:51:33;;;;;;;3.85;1.70;;;21.00;92.30;;;;;;5033315;28;20120;-82
2023/09/29 02:53:59;;;;;;;3.75;1.40;;;21.00;92.30;;;;;;5034810;28;20108;-82
2023/09/29 02:56:25;;;;;;;4.15;1.70;;;21.00;92.20;;;;;;5034057;28;20037;-83
2023/09/29 02:58:54;;;;;;;5.03;1.60;;;21.00;92.20;;;;;;5034424;28;20088;-83
2023/09/29 03:01:20;;;;;;;4.07;1.63;;;21.10;92.20;;;;;;5034236;28;20095;-83
2023/09/29 03:03:46;;;;;;;4.00;1.85;;;21.10;92.20;;;;;;5049834;28;20112;-82
2023/09/29 03:06:21;;;;;;;7.00;1.48;;;21.10;92.20;;;;;;5034307;28;20056;-81
2023/09/29 03:08:54;;;;;;;3.50;1.73;;;21.10;92.10;;;;;;5034372;28;20075;-82
2023/09/29 03:11:20;;;;;;;;;;;21.10;92.10;;;;;;5034853;28;20029;-81
2023/09/29 03:13:46;;;;;;;3.53;1.70;;;21.10;92.10;;;;;;5034151;28;20361;-81
2023/09/29 03:16:12;;;;;;;3.97;1.30;;;21.10;92.10;;;;;;5033808;28;20482;-80
2023/09/29 03:18:39;;;;;;;4.30;1.40;;;21.10;92.10;;;;;;5033669;28;20025;-83
2023/09/29 03:21:07;;;;;;;6.10;2.08;;;21.10;92.20;;;;;;5034207;28;20030;-83
2023/09/29 03:23:36;;;;;;;3.30;1.80;;;21.10;92.20;;;;;;5034069;28;20042;-80
2023/09/29 03:26:05;;;;;;;3.30;1.30;;;21.00;92.20;;;;;;5032600;28;20058;-81
2023/09/29 03:28:35;;;;;;;5.43;1.75;;;21.00;92.20;;;;;;5034263;28;20017;-81
2023/09/29 03:31:04;;;;;;;4.82;1.40;;;21.00;92.20;;;;;;5033911;28;20021;-81
2023/09/29 03:33:29;;;;;;;5.80;1.60;;;21.00;92.30;;;;;;5033796;28;20097;-81
2023/09/29 03:35:55;;;;;;;6.20;2.30;;;21.00;92.30;;;;;;5032498;28;20359;-81
2023/09/29 03:38:21;;;;;;;4.80;2.00;;;20.90;92.30;;;;;;5033978;28;20029;-81
2023/09/29 03:40:50;;;;;;;5.43;1.55;;;20.90;92.40;;;;;;5032250;28;20029;-81
2023/09/29 03:43:25;;;;;;;5.57;1.65;;;20.90;92.30;;;;;;5034043;28;20025;-82
2023/09/29 03:45:51;;;;;;;4.47;1.55;;;20.90;92.30;;;;;;5033451;28;20466;-82
2023/09/29 03:48:19;;;;;;;4.57;1.52;;;20.90;92.30;;;;;;5033815;28;20030;-82
2023/09/29 03:50:49;;;;;;;3.65;1.58;;;20.90;92.30;;;;;;5034000;28;20104;-81
2023/09/29 03:53:18;;;;;;;3.30;1.23;;;20.90;92.30;;;;;;5032635;28;20474;-81
2023/09/29 03:55:45;;;;;;;5.03;1.40;;;20.90;92.30;;;;;;5033463;28;20025;-82
2023/09/29 03:58:10;;;;;;;4.35;1.40;;;20.90;92.30;;;;;;5033770;28;20037;-81
2023/09/29 04:00:36;;;;;;;4.13;1.42;;;20.90;92.30;;;;;;5032457;28;20030;-81
2023/09/29 04:03:02;;;;;;;3.75;1.40;;;20.90;92.30;;;;;;5033555;28;20041;-81
2023/09/29 04:05:28;;;;;;;5.20;1.50;;;20.90;92.30;;;;;;5033596;28;20022;-82
2023/09/29 04:07:54;;;;;;;4.05;1.35;;;20.90;92.30;;;;;;5032933;28;20034;-82
2023/09/29 04:10:20;;;;;;;4.18;1.60;;;20.90;92.30;;;;;;5033613;28;20431;-81
2023/09/29 04:12:46;;;;;;;4.15;1.83;;;20.90;92.30;;;;;;5033096;28;20044;-81
2023/09/29 04:15:12;;;;;;;4.45;1.60;;;20.80;92.30;;;;;;5033490;28;20030;-79
2023/09/29 04:17:39;;;;;;;3.05;1.33;;;20.80;92.40;;;;;;5032956;28;20367;-81
2023/09/29 04:20:05;;;;;;;4.15;1.70;;;20.80;92.30;;;;;;5032701;28;20030;-80
2023/09/29 04:22:32;;;;;;;4.40;1.40;;;20.80;92.30;;;;;;5032058;28;20148;-81
2023/09/29 04:24:57;;;;;;;3.92;1.40;;;20.80;92.40;;;;;;5033159;28;20077;-80
2023/09/29 04:27:23;;;;;;;3.33;1.40;;;20.80;92.40;;;;;;5032083;28;20107;-81
2023/09/29 04:29:51;;;;;;;3.78;1.13;;;20.80;92.40;;;;;;5033431;28;20470;-81
2023/09/29 04:32:17;;;;;;;4.65;1.75;;;20.80;92.40;;;;;;5032704;28;20033;-81
2023/09/29 04:34:43;;;;;;;3.70;1.10;;;20.80;92.40;;;;;;5033027;28;20040;-81
2023/09/29 04:37:09;;;;;;;2.97;1.40;;;20.70;92.50;;;;;;5033087;28;20111;-80
2023/09/29 04:39:35;;;;;;;2.83;1.30;;;20.80;92.50;;;;;;5032921;28;20038;-80
2023/09/29 04:42:02;;;;;;;3.85;1.05;;;20.80;92.50;;;;;;5031270;28;20041;-80
2023/09/29 04:44:28;;;;;;;3.50;1.35;;;20.80;92.50;;;;;;5032849;28;20474;-81
2023/09/29 04:46:54;;;;;;;3.33;1.33;;;20.80;92.50;;;;;;5031924;28;20029;-81
2023/09/29 04:49:19;;;;;;;4.65;1.83;;;20.80;92.50;;;;;;5031407;28;20060;-80
2023/09/29 04:51:45;;;;;;;3.40;1.25;;;20.80;92.50;;;;;;5033223;28;20074;-80
2023/09/29 04:54:11;;;;;;;3.88;1.50;;;20.80;92.50;;;;;;5032815;28;20030;-80
2023/09/29 04:56:37;;;;;;;2.85;1.50;;;20.80;92.60;;;;;;5031670;28;20026;-79
2023/09/29 04:59:02;;;;;;;4.25;1.88;;;20.80;92.70;;;;;;5031732;28;20034;-80
2023/09/29 05:01:28;;;;;;;4.13;1.80;;;20.80;92.80;;;;;;5031463;28;20044;-80
2023/09/29 05:03:54;;;;;;;3.53;1.40;;;20.70;92.80;;;;;;5032620;28;20101;-80
2023/09/29 05:06:23;;;;;;;3.95;1.60;;;20.70;92.80;;;;;;5048413;28;20034;-80
2023/09/29 05:08:49;;;;;;;2.88;1.25;;;20.70;92.90;;;;;;5032571;28;20116;-80
2023/09/29 05:11:25;;;;;;;3.58;1.40;;;20.80;92.90;;;;;;5033160;28;20446;-80
2023/09/29 05:13:52;;;;;;;2.63;1.15;;;20.80;92.90;;;;;;5032862;28;20033;-80
2023/09/29 05:16:17;;;;;;;2.95;1.25;;;20.80;92.80;;;;;;5031221;28;20040;-80
2023/09/29 05:18:44;;;;;;;2.45;1.30;;;20.80;93.00;;;;;;5032175;28;20025;-79
2023/09/29 05:21:11;;;;;;;6.63;2.25;;;20.80;93.10;;;;;;5034630;28;20047;-80
2023/09/29 05:23:40;;;;;;;2.40;1.08;;;20.70;93.30;;;;;;5036296;28;20359;-81
2023/09/29 05:26:07;;;;;;;2.20;1.40;;;20.70;93.30;;;;;;5036447;28;20371;-80
2023/09/29 05:28:34;;;;;;;4.95;1.67;;;20.70;93.30;;;;;;5035798;28;20428;-80
2023/09/29 05:30:59;;;;;;;3.72;1.80;;;20.70;93.50;;;;;;5036294;28;20064;-80
2023/09/29 05:33:25;;;;;;;4.20;1.58;;;20.60;94.00;;;;;;5036177;28;20064;-81
2023/09/29 05:35:51;;;;;;;2.50;1.40;;;20.60;93.70;;;;;;5036236;28;20053;-81
2023/09/29 05:38:18;;;;;;;5.25;1.40;;;20.60;93.80;;;;;;5036119;28;20517;-80
2023/09/29 05:40:47;;;;;;;2.85;1.40;;;20.60;94.10;;;;;;5035607;28;20480;-81
2023/09/29 05:43:13;;;;;;;3.15;1.35;;;20.50;94.40;;;;;;5036014;28;20046;-80
2023/09/29 05:45:39;;;;;;;6.78;1.50;;;20.50;94.30;;;;;;5034790;28;20075;-80
2023/09/29 05:48:06;;;;;;;1.83;0.93;;;20.50;94.60;;;;;;5035319;28;20021;-80
2023/09/29 05:50:32;;;;;;;1.83;1.15;;;20.40;94.50;;;;;;5035697;28;20160;-81
2023/09/29 05:52:59;;;;;;;2.83;1.73;;;20.40;94.70;;;;;;5035606;28;20037;-80
2023/09/29 05:55:24;;;;;;;3.22;1.45;;;20.40;94.70;;;;;;5034607;28;20040;-80
2023/09/29 05:57:51;;;;;;;3.50;1.65;;;20.50;94.60;;;;;;5035464;28;20390;-80
2023/09/29 06:00:17;;;;;;;2.28;1.33;;;20.50;94.60;;;;;;5034181;28;20052;-80
2023/09/29 06:02:43;;;;;;;2.85;1.50;;;20.50;94.60;;;;;;5035146;28;20045;-78
2023/09/29 06:05:10;;;;;;;2.80;1.20;;;20.50;94.90;;;;;;5035546;28;20061;-81
2023/09/29 06:07:36;;;;;;;3.70;0.90;;;20.60;94.60;;;;;;5034346;28;20466;-80
2023/09/29 06:10:03;;;;;;;3.50;1.75;;;20.50;94.60;;;;;;5034350;28;20032;-80
2023/09/29 06:12:29;;;;;;;3.80;1.30;;;20.60;94.60;;;;;;5035037;28;20087;-80
2023/09/29 06:14:55;;;;;;;1.55;0.82;;;20.60;94.60;;;;;;5034245;28;20030;-81
2023/09/29 06:17:20;;;;;;;3.45;1.02;;;20.60;94.40;;;;;;5035080;28;20116;-81
2023/09/29 06:19:46;;;;;;;3.28;1.40;;;20.70;94.40;;;;;;5034204;28;20057;-81
2023/09/29 06:22:12;;;;;;;2.78;1.00;;;20.70;94.40;;;;;;5035616;28;20033;-80
2023/09/29 06:24:37;;;;;;;2.22;1.10;;;20.70;94.40;;;;;;5033915;28;20057;-81
2023/09/29 06:27:03;;;;;;;2.17;1.05;;;20.80;94.30;;;;;;5035254;28;20040;-80
2023/09/29 06:29:29;;;;;;;2.92;0.98;;;20.80;94.30;;;;;;5035303;28;20112;-80
2023/09/29 06:31:55;;;;;;;3.72;1.02;;;20.80;94.40;;;;;;5032827;28;20517;-80
2023/09/29 06:34:20;;;;;;;1.90;1.00;;;20.80;94.20;;;;;;5033662;28;20112;-81
2023/09/29 06:36:46;;;;;;;2.70;1.48;;;20.90;94.50;;;;;;5035238;28;20029;-80
2023/09/29 06:39:12;;;;;;;2.20;0.90;;;20.90;94.60;;;;;;5033968;28;20038;-80
2023/09/29 06:41:38;;;;;;;2.60;1.08;;;20.90;94.50;;;;;;5033773;28;20029;-81
2023/09/29 06:44:05;;;;;;;2.35;1.00;;;20.90;94.70;;;;;;5034630;28;20045;-81
2023/09/29 06:46:30;;;;;;;2.30;0.80;;;20.80;94.70;;;;;;5035117;28;20109;-80
2023/09/29 06:48:56;;;;;;;1.52;0.90;;;20.90;94.60;;;;;;5034427;28;20061;-81
2023/09/29 06:51:22;;;;;;;1.38;0.60;;;20.90;94.40;;;;;;5034761;28;20422;-80
2023/09/29 06:53:47;;;;;;;2.33;0.88;;;20.90;94.30;;;;;;5034783;28;20029;-81
2023/09/29 06:56:13;;;;;;;4.10;1.08;;;21.00;94.30;;;;;;5017106;28;20040;-80
2023/09/29 06:58:39;;;;;;;2.22;0.90;;;21.00;94.70;;;;;;5034193;28;20033;-81
2023/09/29 07:01:04;;;;;;;2.25;0.75;;;21.00;95.00;;;;;;5033333;28;20033;-81
2023/09/29 07:03:30;;;;;;;2.67;1.30;;;21.00;95.10;;;;;;5034220;28;20116;-81
2023/09/29 07:06:05;;;;;;;2.28;1.00;;;21.00;95.20;;;;;;5034431;28;20470;-81
2023/09/29 07:08:31;;;;;;;2.95;0.90;;;21.00;95.10;;;;;;5034240;28;20028;-81
2023/09/29 07:10:57;;;;;;;2.97;1.02;;;21.00;95.00;;;;;;5034399;28;20022;-81
2023/09/29 07:13:23;;;;;;;3.15;1.05;;;21.00;95.20;;;;;;5034816;28;20037;-81
2023/09/29 07:15:49;;;;;;;2.28;1.00;;;21.00;95.20;;;;;;5034589;28;20152;-80
2023/09/29 07:18:16;;;;;;;2.17;0.90;;;21.00;95.50;;;;;;5033396;28;20048;-79
2023/09/29 07:20:43;;;;;;;2.78;1.00;;;21.00;95.50;;;;;;5033287;28;20049;-81
2023/09/29 07:23:08;;;;;;;3.83;1.20;;;21.00;95.40;;;;;;5033897;28;20045;-80
2023/09/29 07:25:38;;;;;;;2.15;0.98;;;21.00;95.30;;;;;;5034137;28;20054;-81
2023/09/29 07:28:13;;;;;;;2.70;1.30;;;21.00;95.30;;;;;;5032856;28;20033;-81
2023/09/29 07:30:41;;;;;;;4.82;1.08;;;21.10;95.60;;;;;;5034175;28;20060;-81
2023/09/29 07:33:07;;;;;;;2.00;0.90;;;21.10;96.00;;;;;;5033854;28;20039;-81
2023/09/29 07:35:32;;;;;;;2.38;1.33;;;21.10;95.80;;;;;;5034017;28;20033;-81
2023/09/29 07:38:00;;;;;;;2.53;1.15;;;21.10;96.10;;;;;;5032790;28;20063;-82
2023/09/29 07:40:25;;;;;;;2.92;1.30;;;21.10;96.10;;;;;;5048957;28;20033;-81
2023/09/29 07:42:51;;;;;;;2.88;0.95;;;21.10;96.20;;;;;;5015769;28;20371;-82
2023/09/29 07:45:18;;;;;;;2.70;1.25;;;21.10;96.20;;;;;;5034630;28;20037;-80
2023/09/29 07:47:43;;;;;;;2.28;1.02;;;21.10;96.30;;;;;;5033162;28;20033;-78
2023/09/29 07:50:09;;;;;;;2.20;1.13;;;21.10;96.60;;;;;;5033942;28;20030;-81
2023/09/29 07:52:37;;;;;;;3.97;1.38;;;21.10;96.40;;;;;;5033284;28;20037;-80
2023/09/29 07:55:05;;;;;;;4.00;1.15;;;21.10;96.40;;;;;;5033980;28;20042;-81
2023/09/29 07:57:30;;;;;;;2.55;1.05;;;21.10;96.40;;;;;;5016094;28;20037;-80
2023/09/29 07:59:56;;;;;;;3.88;1.73;;;21.10;96.30;;;;;;5033318;28;20378;-81
2023/09/29 08:02:22;;;;;;;5.05;1.33;;;21.10;96.40;;;;;;5033345;28;20532;-81
2023/09/29 08:04:47;;;;;;;2.97;1.08;;;21.10;96.50;;;;;;5033191;28;20088;-80
2023/09/29 08:07:13;;;;;;;6.72;1.05;;;21.10;96.50;;;;;;5033554;28;20033;-80
2023/09/29 08:09:39;;;;;;;3.40;1.00;;;21.20;96.60;;;;;;5033221;28;20470;-78
2023/09/29 08:12:05;;;;;;;3.58;1.27;;;21.20;96.70;;;;;;5033227;28;20079;-81
2023/09/29 08:14:31;;;;;;;3.15;1.05;;;21.20;96.90;;;;;;5048684;28;20052;-81
2023/09/29 08:16:57;;;;;;;2.42;0.95;;;21.20;96.80;;;;;;5033333;28;20088;-80
2023/09/29 08:19:23;;;;;;;5.57;1.33;;;21.20;96.90;;;;;;5033197;28;20041;-81
2023/09/29 08:21:49;;;;;;;3.17;1.13;;;21.20;97.10;;;;;;5032848;28;20033;-81
2023/09/29 08:24:15;;;;;;;2.95;1.13;;;21.20;97.10;;;;;;5015612;28;20381;-81
2023/09/29 08:26:41;;;;;;;3.00;0.85;;;21.20;97.20;;;;;;5032267;28;20185;-82
2023/09/29 08:29:09;;;;;;;3.58;1.20;;;21.20;97.10;;;;;;5033006;28;20074;-82
2023/09/29 08:31:35;;;;;;;2.42;1.30;;;21.20;97.30;;;;;;5031725;28;20053;-82
2023/09/29 08:34:01;;;;;;;4.03;1.13;;;21.20;97.30;;;;;;5031909;28;20385;-82
2023/09/29 08:36:27;;;;;;;5.30;1.33;;;21.20;97.30;;;;;;5033324;28;20029;-82
2023/09/29 08:38:53;;;;;;;3.67;1.00;;;21.30;97.30;;;;;;5033129;28;20394;-81
2023/09/29 08:41:25;;;;;;;5.05;1.10;;;21.30;97.30;;;;;;5031528;28;20029;-82
2023/09/29 08:43:51;;;;;;;4.80;1.00;;;21.40;97.40;;;;;;5033220;28;20033;-82
2023/09/29 08:46:20;;;;;;;2.47;1.10;;;21.40;97.40;;;;;;5032812;28;20040;-81
2023/09/29 08:48:47;;;;;;;3.10;1.20;;;21.50;97.40;;;;;;5032686;28;20025;-81
2023/09/29 08:51:15;;;;;;;2.75;0.90;;;21.50;97.50;;;;;;5033063;28;20047;-82
2023/09/29 08:53:44;;;;;;;4.57;1.40;;;21.50;97.40;;;;;;5033246;28;20033;-82
2023/09/29 08:56:16;;;;;;;2.85;1.40;;;21.50;97.40;;;;;;5035981;28;20029;-82
2023/09/29 08:58:42;;;;;;;3.10;1.00;;;21.50;97.30;;;;;;5035943;28;20462;-82
2023/09/29 09:01:08;;;;;;;4.60;1.30;;;21.60;97.40;;;;;;5036572;28;20044;-82
2023/09/29 09:03:34;;;;;;;2.72;1.20;;;21.60;97.30;;;;;;5035039;28;20462;-82
2023/09/29 09:06:01;;;;;;;3.10;1.30;;;21.60;97.20;;;;;;5036101;28;20037;-82
2023/09/29 09:08:27;;;;;;;4.13;1.70;;;21.60;97.30;;;;;;5036496;28;20104;-82
2023/09/29 09:11:00;;;;;;;3.17;1.35;;;21.70;97.30;;;;;;5034727;28;20117;-81
2023/09/29 09:13:26;;;;;;;4.07;1.40;;;21.80;97.50;;;;;;5035150;28;20029;-82
2023/09/29 09:15:57;;;;;;;2.08;1.02;;;21.80;97.30;;;;;;5036662;28;20113;-82
2023/09/29 09:18:25;;;;;;;4.43;1.40;;;21.80;97.30;;;;;;5035828;28;20034;-82
2023/09/29 09:20:52;;;;;;;3.60;1.23;;;21.90;97.40;;;;;;5036644;28;20025;-82
2023/09/29 09:23:18;;;;;;;3.72;1.25;;;22.00;97.40;;;;;;5036425;28;20048;-82
2023/09/29 09:25:44;;;;;;;6.10;1.45;;;22.10;97.10;;;;;;5035832;28;20485;-81
2023/09/29 09:28:22;;;;;;;3.00;1.40;;;22.10;96.90;;;;;;5035171;28;20034;-82
2023/09/29 09:30:51;;;;;;;4.13;1.38;;;22.10;96.70;;;;;;5035133;28;20488;-82
2023/09/29 09:33:21;;;;;;;4.03;1.50;;;22.10;96.80;;;;;;5035887;28;20053;-81
2023/09/29 09:35:51;;;;;;;3.20;1.40;;;22.00;96.60;;;;;;5035919;28;20395;-81
2023/09/29 09:38:17;;;;;;;4.20;1.70;;;22.00;96.70;;;;;;5035945;28;20037;-81
2023/09/29 09:40:44;;;;;;;6.93;1.75;;;21.90;96.60;;;;;;5035716;28;20113;-82
2023/09/29 09:43:10;;;;;;;7.05;2.20;;;21.90;96.80;;;;;;5051147;28;20087;-82
2023/09/29 09:45:44;;;;;;;4.32;1.60;;;21.90;96.80;;;;;;5034356;28;20029;-81
2023/09/29 09:48:15;;;;;;;4.13;1.55;;;21.90;96.80;;;;;;5035955;28;20125;-81
2023/09/29 09:50:45;;;;;;;5.30;1.80;;;21.90;97.00;;;;;;5035657;28;20041;-82
2023/09/29 09:53:13;;;;;;;6.05;1.80;;;21.90;97.20;;;;;;5036000;28;20030;-82
2023/09/29 09:55:52;;;;;;;3.65;1.92;;;21.90;96.90;;;;;;5035786;28;20079;-82
2023/09/29 09:58:21;;;;;;;5.18;1.67;;;21.90;96.80;;;;;;5035600;28;20060;-81
2023/09/29 10:00:50;;;;;;;5.03;1.48;;;21.80;96.80;;;;;;5035844;28;20132;-82
2023/09/29 10:03:17;;;;;;;4.57;1.50;;;21.80;97.00;;;;;;5035298;28;20041;-82
2023/09/29 10:05:52;;;;;;;4.72;1.50;;;21.80;97.10;;;;;;5035540;28;20113;-83
2023/09/29 10:08:30;;;;;;;3.97;1.10;;;21.80;97.10;;;;;;5035722;28;20029;-82
2023/09/29 10:11:13;;;;;;;4.22;1.83;;;21.90;97.10;;;;;;5035365;28;20025;-83
2023/09/29 10:13:44;;;;;;;4.25;1.52;;;22.00;97.10;;;;;;5035513;28;20033;-82
2023/09/29 10:16:21;;;;;;;3.90;1.67;;;22.00;97.00;;;;;;5035035;28;20466;-82
2023/09/29 10:18:58;;;;;;;3.80;1.27;;;22.10;97.00;;;;;;5034405;28;20057;-81
2023/09/29 10:21:25;;;;;;;3.97;1.63;;;22.10;96.90;;;;;;5034801;28;20029;-81
2023/09/29 10:23:51;;;;;;;6.28;1.73;;;22.10;97.00;;;;;;5034708;28;20409;-83
2023/09/29 10:26:20;;;;;;;6.43;2.25;;;22.10;97.00;;;;;;5017003;28;20076;-82
2023/09/29 10:28:46;;;;;;;3.45;1.45;;;22.00;96.80;;;;;;5034829;28;20025;-81
2023/09/29 10:31:17;;;;;;;3.83;1.75;;;22.00;96.80;;;;;;5034895;28;20026;-82
2023/09/29 10:33:53;;;;;;;4.85;1.73;;;21.90;96.70;;;;;;5033491;28;20444;-82
2023/09/29 10:36:30;;;;;;;4.65;1.40;;;21.90;96.90;;;;;;5033415;28;20022;-81
2023/09/29 10:38:57;;;;;;;5.82;1.58;;;21.90;97.00;;;;;;5033597;28;20029;-81
2023/09/29 10:41:24;;;;;;;5.75;1.52;;;21.90;97.10;;;;;;5034261;28;20108;-82
2023/09/29 10:43:50;;;;;;;4.78;1.30;;;21.90;97.30;;;;;;5033263;28;20552;-83
2023/09/29 10:46:17;;;;;;;5.57;1.20;;;21.90;97.30;;;;;;5034609;28;20113;-81
2023/09/29 10:48:47;;;;;;;2.55;0.80;;;21.80;97.20;;;;;;5034087;28;20044;-82
2023/09/29 10:51:27;;;;;;;3.85;1.42;;;21.70;97.40;;;;;;5034678;28;20072;-82
2023/09/29 10:53:53;;;;;;;3.95;1.20;;;21.70;97.60;;;;;;5033429;28;20047;-81
2023/09/29 10:56:24;;;;;;;3.28;1.02;;;21.80;98.00;;;;;;5033965;28;20104;-82
2023/09/29 10:58:54;;;;;;;4.72;0.98;;;21.70;98.00;;;;;;5034531;28;20030;-82
2023/09/29 11:01:30;;;;;;;3.53;1.05;;;21.80;98.00;;;;;;5033320;28;20036;-82
2023/09/29 11:03:56;;;;;;;4.53;1.35;;;21.80;98.20;;;;;;5034850;28;20037;-83
2023/09/29 11:06:23;;;;;;;2.75;1.30;;;21.80;98.30;;;;;;5034094;28;20505;-82
2023/09/29 11:08:53;;;;;;;4.50;1.48;;;21.70;98.20;;;;;;5034507;28;20025;-81
2023/09/29 11:11:19;;;;;;;2.13;1.27;;;21.60;98.30;;;;;;5034346;28;20450;-81
2023/09/29 11:13:56;;;;;;;2.47;1.40;;;21.60;98.30;;;;;;5034352;28;20120;-82
2023/09/29 11:16:27;;;;;;;6.53;2.50;;;21.60;98.40;;;;;;5034329;28;20033;-82
2023/09/29 11:18:56;;;;;;;6.95;1.60;;;21.60;98.40;;;;;;5033274;28;20087;-81
2023/09/29 11:21:33;;;;;;;3.58;1.52;;;21.50;98.60;;;;;;5033868;28;20481;-81
2023/09/29 11:24:08;;;;;;;4.47;1.02;;;21.50;98.70;;;;;;5033696;28;20083;-81
2023/09/29 11:26:37;;;;;;;7.53;2.45;;;21.50;98.70;;;;;;5034108;28;20046;-81
2023/09/29 11:29:03;;;;;;;4.28;1.48;;;21.40;98.70;;;;;;5033681;28;20033;-81
2023/09/29 11:31:29;;;;;;;5.75;1.20;;;21.40;98.80;;;;;;5032545;28;20037;-82
2023/09/29 11:33:56;;;;;;;3.55;1.30;;;21.50;98.90;;;;;;5033702;28;20029;-82
2023/09/29 11:36:24;;;;;;;3.47;1.38;;;21.60;99.10;;;;;;5033728;28;20032;-82
2023/09/29 11:38:50;;;;;;;2.70;1.35;;;21.60;99.30;;;;;;5034568;28;20060;-82
2023/09/29 11:41:17;;;;;;;5.60;1.55;;;21.60;99.40;;;;;;5034577;28;20028;-82
2023/09/29 11:43:45;;;;;;;3.83;1.67;;;21.50;99.50;;;;;;5032906;28;20502;-82
2023/09/29 11:46:11;;;;;;;5.03;2.00;;;21.50;99.60;;;;;;5034111;28;20084;-82
2023/09/29 11:48:37;;;;;;;5.20;1.73;;;21.40;99.90;;;;;;5033325;28;20025;-81
2023/09/29 11:51:03;;;;;;;7.88;1.98;;;21.40;99.90;;;;;;5033481;28;20100;-82
2023/09/29 11:53:30;;;;;;;5.10;1.40;;;21.40;99.90;;;;;;5033456;28;20029;-82
2023/09/29 11:55:56;;;;;;;4.22;1.50;;;21.40;99.90;;;;;;5032624;28;20034;-82
2023/09/29 11:58:25;;;;;;;2.67;1.55;;;21.40;99.90;;;;;;5031290;28;20120;-82
2023/09/29 12:00:51;;;;;;;4.22;1.60;;;21.40;99.90;;;;;;5032535;28;20459;-82
2023/09/29 12:03:21;;;;;;;4.40;1.63;;;21.40;99.90;;;;;;5032517;28;20064;-81
2023/09/29 12:05:49;;;;;;;5.32;1.67;;;21.40;99.90;;;;;;5031682;28;20033;-82
2023/09/29 12:08:16;;;;;;;4.43;1.60;;;21.30;99.90;;;;;;5031487;28;20032;-81
2023/09/29 12:10:42;;;;;;;3.40;1.70;;;21.30;99.90;;;;;;5030689;28;20113;-83
2023/09/29 12:13:10;;;;;;;3.35;1.85;;;21.20;99.90;;;;;;5029873;28;20060;-78
2023/09/29 12:15:36;;;;;;;4.40;1.65;;;21.20;99.90;;;;;;5030738;28;20350;-81
2023/09/29 12:18:02;;;;;;;4.85;2.00;;;21.20;99.90;;;;;;5029987;28;20103;-78
2023/09/29 12:20:28;;;;;;;3.78;1.88;;;21.20;99.90;;;;;;5029873;28;20470;-82
2023/09/29 12:22:55;;;;;;;4.35;1.98;;;21.20;99.90;;;;;;5030874;28;20124;-82
2023/09/29 12:25:21;;;;;;;3.75;2.38;;;21.20;99.90;;;;;;5029611;28;20139;-81
2023/09/29 12:27:48;;;;;;;4.25;2.15;;;21.30;99.90;;;;;;5030857;28;20518;-83
2023/09/29 12:30:14;;;;;;;3.38;1.80;;;21.20;99.90;;;;;;5032453;28;20029;-82
2023/09/29 12:32:44;;;;;;;4.60;1.70;;;21.20;99.90;;;;;;5034251;28;20512;-81
2023/09/29 12:35:12;;;;;;;4.93;1.80;;;21.10;99.90;;;;;;5034653;28;20026;-79
2023/09/29 12:37:45;;;;;;;3.10;1.35;;;21.10;99.90;;;;;;5034637;28;20060;-79
2023/09/29 12:40:12;;;;;;;1.92;0.95;;;21.00;99.90;;;;;;5034288;28;20041;-79
2023/09/29 12:42:42;;;;;;;2.65;0.70;;;20.90;99.90;;;;;;5034503;28;20051;-76
2023/09/29 12:45:10;;;;;;;1.98;0.60;;;20.90;99.90;;;;;;5034782;28;20025;-79
2023/09/29 12:47:35;;;;;;;3.72;1.10;;;20.90;99.90;;;;;;5034294;28;20036;-78
2023/09/29 12:50:02;;;;;;;3.75;0.85;;;20.90;99.90;;;;;;5033840;28;20034;-79
2023/09/29 12:52:27;;;;;;;3.80;0.90;;;20.80;99.90;;;;;;5034306;28;20485;-79